createdAt,value
2017-08-25T00:01:24.473Z,4.00
2017-08-25T00:03:52.895Z,4.10
2017-08-25T00:06:21.359Z,3.70
2017-08-25T00:08:49.789Z,3.60
2017-08-25T00:11:18.226Z,4.70
2017-08-25T00:13:46.692Z,4.20
2017-08-25T00:16:15.167Z,4.10
2017-08-25T00:18:43.650Z,3.80
2017-08-25T00:21:12.111Z,4.20
2017-08-25T00:23:40.531Z,3.00
2017-08-25T00:26:09.097Z,3.83
2017-08-25T00:28:37.568Z,3.60
2017-08-25T00:31:06.047Z,3.40
2017-08-25T00:33:34.541Z,3.40
2017-08-25T00:36:03.007Z,3.60
2017-08-25T00:38:31.506Z,3.10
2017-08-25T00:41:00.696Z,3.50
2017-08-25T00:43:29.174Z,2.60
2017-08-25T00:45:57.600Z,3.07
2017-08-25T00:48:26.033Z,3.27
2017-08-25T00:50:54.523Z,3.30
2017-08-25T00:53:23.011Z,3.60
2017-08-25T00:55:51.498Z,3.60
2017-08-25T00:58:19.964Z,3.47
2017-08-25T01:00:48.448Z,3.10
2017-08-25T01:03:16.929Z,4.00
2017-08-25T01:05:46.146Z,3.07
2017-08-25T01:08:14.602Z,3.23
2017-08-25T01:10:43.102Z,3.23
2017-08-25T01:13:11.576Z,2.83
2017-08-25T01:15:40.017Z,3.30
2017-08-25T01:18:08.537Z,3.70
2017-08-25T01:20:36.967Z,3.20
2017-08-25T01:23:05.425Z,2.90
2017-08-25T01:25:33.869Z,3.77
2017-08-25T01:28:02.360Z,4.70
2017-08-25T01:30:30.861Z,3.20
2017-08-25T01:32:59.345Z,3.83
2017-08-25T01:35:27.823Z,3.60
2017-08-25T01:37:56.282Z,3.60
2017-08-25T01:40:24.784Z,3.67
2017-08-25T01:42:53.225Z,3.57
2017-08-25T01:45:22.535Z,3.70
2017-08-25T01:47:51.036Z,3.70
2017-08-25T01:50:19.520Z,3.40
2017-08-25T01:52:47.958Z,3.87
2017-08-25T01:55:16.494Z,4.00
2017-08-25T01:57:44.969Z,3.70
2017-08-25T02:00:13.449Z,4.30
2017-08-25T02:02:41.945Z,3.50
2017-08-25T02:05:10.422Z,3.47
2017-08-25T02:07:38.869Z,3.60
2017-08-25T02:10:07.375Z,4.67
2017-08-25T02:12:35.855Z,4.00
2017-08-25T02:15:04.305Z,3.80
2017-08-25T02:17:32.829Z,4.30
2017-08-25T02:20:01.304Z,5.10
2017-08-25T02:22:29.784Z,4.03
2017-08-25T02:24:58.246Z,5.33
2017-08-25T02:27:27.478Z,4.90
2017-08-25T02:29:55.947Z,4.93
2017-08-25T02:32:24.380Z,5.50
2017-08-25T02:34:52.846Z,3.97
2017-08-25T02:37:21.291Z,4.73
2017-08-25T02:39:49.788Z,4.37
2017-08-25T02:42:18.224Z,4.17
2017-08-25T02:44:46.740Z,4.43
2017-08-25T02:47:15.235Z,5.47
2017-08-25T02:49:43.665Z,4.20
2017-08-25T02:52:12.116Z,5.30
2017-08-25T02:54:40.568Z,5.30
2017-08-25T02:57:09.055Z,6.00
2017-08-25T02:59:37.529Z,5.53
2017-08-25T03:02:05.976Z,5.33
2017-08-25T03:04:34.497Z,5.53
2017-08-25T03:07:02.940Z,5.27
2017-08-25T03:09:31.461Z,6.20
2017-08-25T03:11:59.921Z,5.33
2017-08-25T03:14:28.357Z,6.30
2017-08-25T03:16:57.013Z,6.23
2017-08-25T03:19:25.447Z,6.43
2017-08-25T03:21:53.904Z,6.63
2017-08-25T03:24:22.337Z,6.03
2017-08-25T03:26:50.827Z,5.77
2017-08-25T03:29:19.318Z,6.07
2017-08-25T03:31:48.021Z,5.70
2017-08-25T03:34:16.488Z,6.37
2017-08-25T03:36:44.933Z,6.10
2017-08-25T03:39:13.443Z,5.90
2017-08-25T03:41:41.933Z,5.67
2017-08-25T03:44:10.412Z,6.23
2017-08-25T03:46:38.892Z,6.03
2017-08-25T03:49:07.381Z,8.20
2017-08-25T03:51:35.808Z,6.73
2017-08-25T03:54:04.267Z,6.30
2017-08-25T03:56:32.725Z,6.07
2017-08-25T03:59:01.186Z,6.00
2017-08-25T04:01:29.676Z,7.67
2017-08-25T04:03:58.124Z,7.00
2017-08-25T04:06:27.333Z,6.17
2017-08-25T04:08:55.844Z,7.20
2017-08-25T04:11:24.267Z,6.13
2017-08-25T04:13:52.804Z,6.43
2017-08-25T04:16:21.228Z,7.50
2017-08-25T04:18:49.684Z,6.93
2017-08-25T04:21:18.124Z,6.67
2017-08-25T04:23:46.580Z,6.70
2017-08-25T04:26:15.025Z,6.57
2017-08-25T04:28:43.542Z,7.60
2017-08-25T04:31:12.086Z,5.93
2017-08-25T04:33:40.551Z,6.30
2017-08-25T04:36:09.051Z,6.40
2017-08-25T04:38:37.524Z,7.20
2017-08-25T04:41:06.010Z,6.97
2017-08-25T04:43:34.441Z,5.87
2017-08-25T04:46:02.978Z,6.83
2017-08-25T04:48:31.462Z,6.90
2017-08-25T04:50:59.932Z,6.70
2017-08-25T04:53:28.421Z,6.97
2017-08-25T04:55:56.895Z,6.67
2017-08-25T04:58:25.391Z,5.80
2017-08-25T05:00:53.859Z,7.43
2017-08-25T05:03:22.297Z,6.83
2017-08-25T05:05:50.834Z,5.93
2017-08-25T05:08:19.323Z,6.40
2017-08-25T05:10:47.791Z,7.57
2017-08-25T05:13:16.277Z,6.13
2017-08-25T05:15:44.767Z,6.40
2017-08-25T05:18:13.232Z,6.60
2017-08-25T05:20:41.716Z,5.97
2017-08-25T05:23:10.152Z,6.53
2017-08-25T05:25:38.695Z,6.30
2017-08-25T05:28:07.137Z,7.43
2017-08-25T05:30:35.639Z,8.00
2017-08-25T05:33:04.064Z,7.27
2017-08-25T05:35:32.517Z,6.37
2017-08-25T05:38:00.989Z,6.60
2017-08-25T05:40:29.445Z,7.57
2017-08-25T05:42:57.947Z,7.03
2017-08-25T05:45:26.449Z,7.07
2017-08-25T05:47:54.896Z,8.00
2017-08-25T05:50:23.395Z,7.43
2017-08-25T05:52:51.847Z,7.30
2017-08-25T05:55:20.380Z,7.50
2017-08-25T05:57:48.846Z,8.80
2017-08-25T06:00:17.329Z,7.47
2017-08-25T06:02:45.818Z,7.67
2017-08-25T06:05:14.287Z,8.00
2017-08-25T06:07:42.771Z,7.17
2017-08-25T06:10:11.252Z,7.67
2017-08-25T06:12:39.735Z,7.87
2017-08-25T06:15:08.159Z,9.47
2017-08-25T06:17:36.699Z,7.83
2017-08-25T06:20:05.191Z,6.67
2017-08-25T06:22:33.644Z,7.30
2017-08-25T06:25:02.094Z,6.77
2017-08-25T06:27:30.632Z,6.40
2017-08-25T06:29:59.121Z,6.70
2017-08-25T06:32:27.704Z,7.07
2017-08-25T06:34:56.136Z,6.30
2017-08-25T06:37:24.656Z,6.50
2017-08-25T06:39:53.149Z,6.23
2017-08-25T06:42:21.592Z,5.90
2017-08-25T06:44:50.099Z,5.47
2017-08-25T06:47:18.601Z,6.00
2017-08-25T06:49:47.068Z,6.80
2017-08-25T06:52:15.491Z,6.37
2017-08-25T06:54:44.042Z,6.50
2017-08-25T06:57:12.476Z,6.37
2017-08-25T06:59:40.998Z,6.50
2017-08-25T07:02:09.442Z,6.63
2017-08-25T07:04:37.956Z,6.20
2017-08-25T07:07:06.457Z,5.70
2017-08-25T07:09:34.903Z,4.50
2017-08-25T07:12:03.414Z,4.13
2017-08-25T07:14:31.893Z,3.17
2017-08-25T07:17:00.381Z,4.03
2017-08-25T07:19:28.862Z,3.50
2017-08-25T07:21:57.332Z,3.80
2017-08-25T07:24:25.804Z,4.40
2017-08-25T07:26:54.409Z,3.70
2017-08-25T07:29:22.875Z,3.40
2017-08-25T07:31:51.364Z,3.60
2017-08-25T07:34:19.862Z,3.83
2017-08-25T07:36:48.327Z,3.00
2017-08-25T07:39:16.786Z,2.70
2017-08-25T07:41:45.230Z,2.60
2017-08-25T07:44:13.789Z,3.40
2017-08-25T07:46:42.236Z,2.87
2017-08-25T07:49:10.747Z,3.60
2017-08-25T07:51:39.234Z,2.60
2017-08-25T07:54:07.711Z,2.60
2017-08-25T07:56:36.184Z,3.10
2017-08-25T07:59:04.663Z,2.57
2017-08-25T08:01:33.116Z,1.90
2017-08-25T08:04:01.912Z,2.13
2017-08-25T08:06:30.383Z,2.00
2017-08-25T08:08:59.575Z,2.10
2017-08-25T08:11:28.037Z,1.90
2017-08-25T08:13:56.469Z,2.43
2017-08-25T08:16:24.970Z,2.17
2017-08-25T08:18:53.454Z,1.87
2017-08-25T08:21:21.941Z,2.00
2017-08-25T08:23:50.380Z,2.60
2017-08-25T08:26:18.891Z,1.87
2017-08-25T08:28:47.562Z,2.20
2017-08-25T08:31:16.068Z,2.37
2017-08-25T08:33:44.540Z,2.10
2017-08-25T08:36:18.553Z,2.63
2017-08-25T08:38:47.044Z,2.53
2017-08-25T08:41:15.526Z,2.17
2017-08-25T08:43:43.989Z,2.50
2017-08-25T08:46:12.490Z,2.37
2017-08-25T08:48:40.965Z,2.60
2017-08-25T08:51:09.444Z,2.10
2017-08-25T08:53:37.956Z,2.27
2017-08-25T08:56:06.405Z,2.07
2017-08-25T08:58:34.861Z,2.47
2017-08-25T09:01:03.381Z,2.27
2017-08-25T09:03:31.851Z,2.47
2017-08-25T09:06:05.812Z,1.80
2017-08-25T09:08:34.260Z,1.80
2017-08-25T09:11:02.691Z,1.73
2017-08-25T09:13:31.149Z,1.93
2017-08-25T09:15:59.697Z,1.97
2017-08-25T09:18:28.172Z,1.20
2017-08-25T09:20:56.605Z,1.70
2017-08-25T09:23:25.061Z,2.00
2017-08-25T09:25:53.525Z,1.97
2017-08-25T09:28:22.100Z,1.60
2017-08-25T09:30:50.598Z,1.90
2017-08-25T09:33:19.410Z,2.73
2017-08-25T09:35:47.966Z,1.90
2017-08-25T09:38:16.447Z,2.20
2017-08-25T09:40:44.920Z,2.13
2017-08-25T09:43:13.353Z,1.93
2017-08-25T09:45:41.795Z,2.00
2017-08-25T09:48:10.275Z,2.27
2017-08-25T09:50:38.755Z,1.90
2017-08-25T09:53:07.228Z,1.80
2017-08-25T09:55:35.672Z,2.10
2017-08-25T09:58:04.107Z,2.13
2017-08-25T10:00:32.569Z,1.90
2017-08-25T10:03:01.005Z,2.37
2017-08-25T10:05:29.451Z,2.30
2017-08-25T10:07:57.928Z,2.90
2017-08-25T10:10:26.399Z,2.40
2017-08-25T10:12:54.819Z,2.70
2017-08-25T10:15:23.402Z,2.77
2017-08-25T10:17:51.961Z,2.10
2017-08-25T10:20:20.437Z,2.10
2017-08-25T10:22:48.917Z,2.30
2017-08-25T10:25:17.402Z,2.23
2017-08-25T10:27:45.871Z,2.90
2017-08-25T10:30:14.362Z,2.37
2017-08-25T10:32:42.835Z,2.30
2017-08-25T10:35:29.076Z,2.40
2017-08-25T10:38:15.343Z,1.73
2017-08-25T10:41:01.528Z,2.23
2017-08-25T10:43:47.841Z,1.90
2017-08-25T10:46:16.311Z,2.10
2017-08-25T10:48:44.809Z,2.10
2017-08-25T10:51:13.275Z,1.60
2017-08-25T10:53:41.701Z,2.13
2017-08-25T10:56:10.179Z,2.13
2017-08-25T10:58:38.729Z,1.63
2017-08-25T11:01:07.166Z,2.13
2017-08-25T11:03:35.698Z,1.80
2017-08-25T11:06:04.178Z,2.20
2017-08-25T11:08:32.648Z,2.47
2017-08-25T11:11:01.141Z,1.63
2017-08-25T11:13:29.622Z,2.20
2017-08-25T11:15:58.094Z,2.00
2017-08-25T11:18:26.551Z,1.70
2017-08-25T11:20:55.884Z,1.93
2017-08-25T11:23:24.327Z,1.87
2017-08-25T11:25:52.839Z,1.60
2017-08-25T11:28:21.325Z,1.70
2017-08-25T11:30:49.768Z,1.70
2017-08-25T11:33:18.229Z,1.30
2017-08-25T11:35:46.657Z,1.87
2017-08-25T11:38:15.166Z,1.07
2017-08-25T11:40:43.600Z,1.90
2017-08-25T11:43:12.121Z,1.97
2017-08-25T11:45:40.588Z,1.83
2017-08-25T11:48:09.080Z,1.43
2017-08-25T11:50:37.513Z,1.80
2017-08-25T11:53:05.959Z,2.03
2017-08-25T11:55:34.397Z,1.40
2017-08-25T11:58:02.913Z,2.23
2017-08-25T12:00:31.360Z,1.80
2017-08-25T12:02:59.868Z,1.60
2017-08-25T12:05:28.357Z,1.83
2017-08-25T12:07:57.245Z,1.57
2017-08-25T12:10:25.729Z,1.87
2017-08-25T12:12:54.280Z,1.83
2017-08-25T12:15:22.787Z,2.00
2017-08-25T12:17:51.212Z,1.73
2017-08-25T12:20:19.752Z,1.90
2017-08-25T12:22:48.246Z,1.80
2017-08-25T12:25:16.715Z,1.80
2017-08-25T12:27:45.211Z,1.80
2017-08-25T12:30:13.676Z,1.20
2017-08-25T12:32:42.173Z,1.87
2017-08-25T12:35:10.633Z,1.80
2017-08-25T12:37:39.129Z,1.77
2017-08-25T12:40:07.619Z,1.70
2017-08-25T12:42:36.166Z,1.70
2017-08-25T12:45:04.686Z,1.67
2017-08-25T12:47:33.160Z,1.97
2017-08-25T12:50:01.656Z,2.00
2017-08-25T12:52:30.131Z,1.53
2017-08-25T12:54:58.593Z,1.53
2017-08-25T12:57:27.095Z,1.60
2017-08-25T12:59:55.582Z,1.90
2017-08-25T13:02:24.059Z,2.00
2017-08-25T13:04:52.542Z,2.00
2017-08-25T13:07:20.985Z,1.93
2017-08-25T13:09:49.450Z,1.50
2017-08-25T13:12:17.883Z,1.90
2017-08-25T13:14:46.356Z,1.40
2017-08-25T13:17:14.853Z,1.60
2017-08-25T13:19:43.320Z,2.00
2017-08-25T13:22:11.818Z,2.03
2017-08-25T13:24:40.288Z,1.80
2017-08-25T13:27:08.725Z,1.67
2017-08-25T13:29:37.247Z,2.37
2017-08-25T13:32:05.745Z,2.50
2017-08-25T13:34:34.227Z,2.23
2017-08-25T13:37:02.660Z,2.10
2017-08-25T13:39:31.092Z,1.80
2017-08-25T13:41:59.667Z,2.03
2017-08-25T13:44:28.109Z,2.37
2017-08-25T13:46:56.631Z,1.90
2017-08-25T13:49:25.104Z,2.43
2017-08-25T13:51:53.556Z,2.30
2017-08-25T13:54:21.992Z,2.80
2017-08-25T13:56:50.439Z,2.57
2017-08-25T13:59:18.933Z,2.30
2017-08-25T14:01:47.412Z,2.33
2017-08-25T14:04:15.903Z,2.60
2017-08-25T14:06:44.381Z,1.77
2017-08-25T14:09:12.818Z,2.30
2017-08-25T14:11:41.350Z,2.63
2017-08-25T14:14:09.824Z,2.67
2017-08-25T14:16:38.320Z,2.43
2017-08-25T14:19:06.784Z,2.63
2017-08-25T14:21:35.263Z,2.53
2017-08-25T14:24:03.702Z,2.00
2017-08-25T14:26:32.228Z,2.13
2017-08-25T14:29:00.652Z,1.80
2017-08-25T14:31:29.107Z,2.17
2017-08-25T14:33:57.572Z,2.43
2017-08-25T14:36:26.066Z,2.37
2017-08-25T14:38:54.525Z,3.00
2017-08-25T14:41:23.020Z,2.73
2017-08-25T14:43:51.513Z,2.43
2017-08-25T14:46:19.984Z,2.80
2017-08-25T14:48:48.463Z,2.90
2017-08-25T14:51:16.902Z,1.73
2017-08-25T14:53:45.348Z,2.80
2017-08-25T14:56:13.912Z,2.20
2017-08-25T14:58:42.391Z,2.67
2017-08-25T15:01:10.876Z,1.97
2017-08-25T15:03:39.355Z,2.60
2017-08-25T15:06:07.790Z,2.00
2017-08-25T15:08:36.319Z,2.63
2017-08-25T15:11:04.757Z,2.57
2017-08-25T15:13:33.305Z,2.27
2017-08-25T15:16:01.778Z,2.13
2017-08-25T15:18:30.240Z,2.43
2017-08-25T15:20:58.677Z,2.10
2017-08-25T15:23:27.212Z,2.60
2017-08-25T15:25:55.696Z,2.83
2017-08-25T15:28:24.175Z,2.30
2017-08-25T15:30:52.670Z,2.73
2017-08-25T15:33:21.158Z,2.17
2017-08-25T15:35:49.640Z,2.10
2017-08-25T15:38:18.121Z,2.43
2017-08-25T15:40:46.562Z,3.47
2017-08-25T15:43:15.008Z,2.97
2017-08-25T15:45:43.557Z,3.00
2017-08-25T15:48:11.993Z,2.73
2017-08-25T15:50:40.524Z,2.40
2017-08-25T15:53:08.956Z,3.10
2017-08-25T15:55:37.411Z,2.70
2017-08-25T15:58:05.869Z,2.63
2017-08-25T16:00:34.350Z,2.97
2017-08-25T16:03:02.824Z,2.40
2017-08-25T16:05:31.281Z,2.93
2017-08-25T16:07:59.725Z,2.67
2017-08-25T16:10:28.278Z,2.60
2017-08-25T16:12:56.757Z,2.90
2017-08-25T16:15:25.207Z,2.53
2017-08-25T16:17:53.721Z,2.50
2017-08-25T16:20:22.197Z,3.40
2017-08-25T16:22:50.624Z,2.80
2017-08-25T16:25:19.065Z,3.20
2017-08-25T16:27:47.539Z,2.60
2017-08-25T16:30:16.020Z,3.50
2017-08-25T16:32:44.448Z,3.07
2017-08-25T16:35:12.984Z,3.20
2017-08-25T16:37:41.479Z,3.03
2017-08-25T16:40:10.037Z,2.93
2017-08-25T16:42:38.470Z,2.60
2017-08-25T16:45:06.933Z,2.67
2017-08-25T16:47:35.404Z,3.00
2017-08-25T16:50:03.895Z,3.00
2017-08-25T16:52:32.347Z,3.43
2017-08-25T16:55:00.842Z,3.30
2017-08-25T16:57:29.338Z,6.17
2017-08-25T16:59:57.767Z,5.40
2017-08-25T17:02:26.298Z,5.10
2017-08-25T17:04:54.737Z,5.67
2017-08-25T17:07:23.262Z,4.50
2017-08-25T17:09:51.709Z,5.33
2017-08-25T17:12:20.227Z,4.43
2017-08-25T17:14:48.654Z,4.10
2017-08-25T17:17:17.121Z,3.90
2017-08-25T17:19:45.655Z,3.90
2017-08-25T17:22:14.139Z,4.03
2017-08-25T17:24:42.639Z,3.47
2017-08-25T17:27:11.114Z,3.87
2017-08-25T17:29:39.597Z,3.50
2017-08-25T17:32:08.075Z,4.07
2017-08-25T17:34:36.511Z,4.03
2017-08-25T17:37:05.048Z,4.83
2017-08-25T17:39:33.517Z,5.63
2017-08-25T17:42:01.999Z,4.77
2017-08-25T17:44:30.463Z,5.13
2017-08-25T17:46:58.895Z,5.27
2017-08-25T17:49:27.352Z,5.17
2017-08-25T17:51:55.810Z,5.03
2017-08-25T17:54:24.303Z,5.27
2017-08-25T17:56:52.797Z,5.03
2017-08-25T17:59:21.278Z,6.87
2017-08-25T18:01:49.771Z,15.10
2017-08-25T18:04:18.332Z,12.30
2017-08-25T18:06:46.764Z,10.30
2017-08-25T18:09:15.295Z,9.77
2017-08-25T18:11:43.780Z,7.30
2017-08-25T18:14:12.219Z,7.47
2017-08-25T18:16:40.744Z,6.00
2017-08-25T18:19:09.186Z,5.80
2017-08-25T18:21:37.708Z,5.40
2017-08-25T18:24:06.197Z,4.30
2017-08-25T18:26:34.687Z,5.00
2017-08-25T18:29:03.155Z,5.50
2017-08-25T18:31:31.646Z,5.90
2017-08-25T18:34:00.134Z,5.10
2017-08-25T18:36:28.600Z,6.40
2017-08-25T18:38:57.046Z,6.87
2017-08-25T18:41:25.574Z,8.30
2017-08-25T18:43:54.061Z,7.83
2017-08-25T18:46:22.645Z,8.60
2017-08-25T18:48:51.085Z,7.73
2017-08-25T18:51:19.531Z,8.00
2017-08-25T18:53:48.077Z,6.80
2017-08-25T18:56:16.567Z,6.00
2017-08-25T18:58:45.014Z,7.37
2017-08-25T19:01:13.531Z,9.90
2017-08-25T19:03:42.004Z,14.23
2017-08-25T19:06:10.479Z,11.20
2017-08-25T19:08:38.978Z,8.23
2017-08-25T19:11:07.562Z,6.60
2017-08-25T19:13:36.005Z,7.10
2017-08-25T19:16:05.243Z,7.57
2017-08-25T19:18:33.726Z,8.00
2017-08-25T19:21:02.206Z,8.40
2017-08-25T19:23:30.675Z,8.63
2017-08-25T19:25:59.160Z,7.40
2017-08-25T19:28:27.649Z,7.27
2017-08-25T19:30:56.133Z,8.20
2017-08-25T19:33:24.708Z,9.60
2017-08-25T19:35:53.192Z,11.13
2017-08-25T19:38:21.666Z,11.27
2017-08-25T19:40:50.114Z,12.47
2017-08-25T19:43:18.568Z,14.40
2017-08-25T19:45:47.015Z,14.60
2017-08-25T19:48:15.507Z,11.70
2017-08-25T19:50:43.984Z,11.73
2017-08-25T19:53:12.453Z,13.77
2017-08-25T19:55:40.888Z,13.13
2017-08-25T19:58:09.435Z,15.43
2017-08-25T20:00:37.881Z,13.87
2017-08-25T20:03:06.337Z,14.57
2017-08-25T20:05:34.778Z,14.10
2017-08-25T20:08:03.246Z,15.67
2017-08-25T20:10:31.749Z,16.77
2017-08-25T20:13:00.295Z,17.90
2017-08-25T20:15:28.802Z,18.07
2017-08-25T20:17:57.389Z,18.37
2017-08-25T20:20:25.819Z,17.07
2017-08-25T20:22:54.432Z,19.70
2017-08-25T20:25:22.950Z,20.83
2017-08-25T20:27:51.572Z,19.10
2017-08-25T20:30:20.071Z,20.13
2017-08-25T20:32:49.400Z,20.70
2017-08-25T20:35:17.894Z,21.10
2017-08-25T20:37:46.374Z,21.47
2017-08-25T20:40:14.816Z,21.70
2017-08-25T20:42:43.328Z,18.00
2017-08-25T20:45:11.769Z,21.47
2017-08-25T20:47:40.296Z,17.47
2017-08-25T20:50:08.786Z,14.13
2017-08-25T20:52:37.256Z,13.43
2017-08-25T20:55:05.750Z,14.77
2017-08-25T20:57:34.235Z,13.03
2017-08-25T21:00:02.703Z,12.83
2017-08-25T21:02:31.131Z,14.83
2017-08-25T21:05:00.141Z,14.37
2017-08-25T21:07:29.224Z,13.27
2017-08-25T21:09:57.766Z,15.47
2017-08-25T21:12:26.209Z,15.20
2017-08-25T21:14:55.548Z,14.70
2017-08-25T21:17:23.999Z,13.20
2017-08-25T21:19:52.465Z,13.20
2017-08-25T21:22:20.983Z,15.77
2017-08-25T21:24:49.445Z,14.80
2017-08-25T21:27:17.964Z,15.10
2017-08-25T21:29:46.430Z,15.83
2017-08-25T21:32:14.921Z,16.00
2017-08-25T21:34:43.405Z,14.20
2017-08-25T21:37:11.849Z,15.50
2017-08-25T21:39:40.318Z,15.43
2017-08-25T21:42:08.840Z,16.30
2017-08-25T21:44:37.287Z,13.97
2017-08-25T21:47:05.804Z,14.73
2017-08-25T21:49:34.307Z,12.37
2017-08-25T21:52:02.783Z,12.93
2017-08-25T21:54:31.252Z,13.17
2017-08-25T21:56:59.693Z,13.73
2017-08-25T21:59:28.211Z,12.97
2017-08-25T22:01:56.712Z,11.20
2017-08-25T22:04:25.176Z,13.67
2017-08-25T22:06:53.648Z,11.10
2017-08-25T22:09:22.144Z,12.13
2017-08-25T22:11:50.596Z,11.93
2017-08-25T22:14:19.820Z,13.20
2017-08-25T22:16:48.281Z,11.80
2017-08-25T22:19:16.797Z,14.10
2017-08-25T22:21:45.257Z,13.27
2017-08-25T22:24:13.747Z,14.20
2017-08-25T22:26:42.236Z,13.37
2017-08-25T22:29:10.726Z,14.03
2017-08-25T22:31:39.310Z,14.40
2017-08-25T22:34:07.748Z,12.80
2017-08-25T22:36:36.275Z,14.20
2017-08-25T22:39:04.760Z,14.63
2017-08-25T22:41:33.327Z,15.43
2017-08-25T22:44:01.812Z,14.83
2017-08-25T22:46:30.283Z,13.53
2017-08-25T22:48:58.718Z,15.57
2017-08-25T22:51:27.167Z,14.83
2017-08-25T22:53:55.640Z,14.43
2017-08-25T22:56:24.116Z,13.10
2017-08-25T22:58:52.553Z,13.80
2017-08-25T23:01:22.665Z,15.47
2017-08-25T23:03:51.209Z,14.73
2017-08-25T23:06:19.649Z,12.93
2017-08-25T23:08:48.100Z,14.87
2017-08-25T23:11:16.546Z,13.30
2017-08-25T23:13:45.035Z,13.20
2017-08-25T23:16:13.507Z,12.73
2017-08-25T23:18:41.995Z,13.63
2017-08-25T23:21:10.437Z,13.27
2017-08-25T23:23:38.971Z,12.40
2017-08-25T23:26:07.449Z,14.80
2017-08-25T23:28:35.936Z,13.33
2017-08-25T23:31:04.417Z,13.87
2017-08-25T23:33:32.883Z,15.90
2017-08-25T23:36:01.364Z,15.97
2017-08-25T23:38:29.858Z,15.03
2017-08-25T23:40:58.346Z,13.80
2017-08-25T23:43:26.804Z,13.10
2017-08-25T23:45:55.291Z,14.40
2017-08-25T23:48:23.780Z,12.00
2017-08-25T23:50:52.265Z,14.17
2017-08-25T23:53:20.754Z,15.17
2017-08-25T23:55:49.220Z,14.77
2017-08-25T23:58:17.700Z,14.93
